createdAt,value
2023-10-26T00:00:26.986Z,44.79
2023-10-26T00:02:55.071Z,44.91
2023-10-26T00:05:23.108Z,44.82
2023-10-26T00:07:51.085Z,44.71
2023-10-26T00:10:19.846Z,44.99
2023-10-26T00:12:48.020Z,44.79
2023-10-26T00:15:17.576Z,44.80
2023-10-26T00:17:45.599Z,44.77
2023-10-26T00:20:14.372Z,44.77
2023-10-26T00:22:42.318Z,45.05
2023-10-26T00:25:10.700Z,44.86
2023-10-26T00:27:42.145Z,44.81
2023-10-26T00:30:12.235Z,44.67
2023-10-26T00:32:41.719Z,44.65
2023-10-26T00:35:10.547Z,44.93
2023-10-26T00:37:38.514Z,44.72
2023-10-26T00:40:08.067Z,44.70
2023-10-26T00:42:36.010Z,44.86
2023-10-26T00:45:04.013Z,44.60
2023-10-26T00:47:32.969Z,44.54
2023-10-26T00:50:02.940Z,44.77
2023-10-26T00:52:30.919Z,44.70
2023-10-26T00:54:58.873Z,44.76
2023-10-26T00:57:26.849Z,44.83
2023-10-26T00:59:55.166Z,44.64
2023-10-26T01:02:23.160Z,44.63
2023-10-26T01:04:51.389Z,44.64
2023-10-26T01:07:21.238Z,44.67
2023-10-26T01:09:49.762Z,44.44
2023-10-26T01:12:18.011Z,44.62
2023-10-26T01:14:46.066Z,44.90
2023-10-26T01:17:14.038Z,44.65
2023-10-26T01:19:43.181Z,44.60
2023-10-26T01:22:12.513Z,44.90
2023-10-26T01:24:40.438Z,44.66
2023-10-26T01:27:08.772Z,44.82
2023-10-26T01:29:37.019Z,44.78
2023-10-26T01:32:05.349Z,44.43
2023-10-26T01:34:33.737Z,44.54
2023-10-26T01:37:01.772Z,44.50
2023-10-26T01:39:31.630Z,44.90
2023-10-26T01:41:59.810Z,44.64
2023-10-26T01:44:27.866Z,44.43
2023-10-26T01:46:55.764Z,44.48
2023-10-26T01:49:24.331Z,44.82
2023-10-26T01:51:52.390Z,44.63
2023-10-26T01:54:20.452Z,44.55
2023-10-26T01:56:49.871Z,44.49
2023-10-26T01:59:17.878Z,44.28
2023-10-26T02:01:45.862Z,44.58
2023-10-26T02:04:13.793Z,44.61
2023-10-26T02:06:42.298Z,44.57
2023-10-26T02:09:10.376Z,44.66
2023-10-26T02:11:38.300Z,44.74
2023-10-26T02:14:07.687Z,44.30
2023-10-26T02:16:35.957Z,44.37
2023-10-26T02:19:04.036Z,44.43
2023-10-26T02:21:32.707Z,44.68
2023-10-26T02:24:00.630Z,44.74
2023-10-26T02:26:29.073Z,44.67
2023-10-26T02:28:57.080Z,44.66
2023-10-26T02:31:26.428Z,44.50
2023-10-26T02:33:54.361Z,44.35
2023-10-26T02:36:23.356Z,44.35
2023-10-26T02:38:51.646Z,44.48
2023-10-26T02:41:19.613Z,44.47
2023-10-26T02:43:47.600Z,44.58
2023-10-26T02:46:15.841Z,44.43
2023-10-26T02:48:45.162Z,44.31
2023-10-26T02:51:13.212Z,44.43
2023-10-26T02:53:41.743Z,44.68
2023-10-26T02:56:10.355Z,44.61
2023-10-26T02:58:38.459Z,44.49
2023-10-26T03:01:06.471Z,44.69
2023-10-26T03:03:34.422Z,44.43
2023-10-26T03:06:05.330Z,43.98
2023-10-26T03:08:33.368Z,44.40
2023-10-26T03:11:01.395Z,44.46
2023-10-26T03:13:29.544Z,44.55
2023-10-26T03:15:58.159Z,44.35
2023-10-26T03:19:02.884Z,44.36
2023-10-26T03:21:32.356Z,44.42
2023-10-26T03:24:00.364Z,44.53
2023-10-26T03:26:28.721Z,44.59
2023-10-26T03:28:56.760Z,44.57
2023-10-26T03:31:24.936Z,44.58
2023-10-26T03:33:52.912Z,44.52
2023-10-26T03:36:21.624Z,44.36
2023-10-26T03:38:51.563Z,44.39
2023-10-26T03:41:21.339Z,44.44
2023-10-26T03:43:50.570Z,44.52
2023-10-26T03:46:20.173Z,44.30
2023-10-26T03:48:48.308Z,44.22
2023-10-26T03:51:16.312Z,44.42
2023-10-26T03:53:44.328Z,44.40
2023-10-26T03:56:13.996Z,44.45
2023-10-26T03:58:42.054Z,44.22
2023-10-26T04:01:10.057Z,44.28
2023-10-26T04:03:38.068Z,44.25
2023-10-26T04:06:07.293Z,44.42
2023-10-26T04:08:35.624Z,43.96
2023-10-26T04:11:03.516Z,44.01
2023-10-26T04:13:32.821Z,44.30
2023-10-26T04:16:01.639Z,44.30
2023-10-26T04:18:30.219Z,44.22
2023-10-26T04:20:59.480Z,44.10
2023-10-26T04:23:28.577Z,44.13
2023-10-26T04:25:57.322Z,44.35
2023-10-26T04:28:26.137Z,44.23
2023-10-26T04:30:55.514Z,44.38
2023-10-26T04:33:23.541Z,44.23
2023-10-26T04:35:51.833Z,44.30
2023-10-26T04:38:19.819Z,44.22
2023-10-26T04:40:48.641Z,44.09
2023-10-26T04:43:16.711Z,44.11
2023-10-26T04:45:44.713Z,44.12
2023-10-26T04:48:14.392Z,44.23
2023-10-26T04:50:42.443Z,44.23
2023-10-26T04:53:10.660Z,44.34
2023-10-26T04:55:38.640Z,44.06
2023-10-26T04:58:07.760Z,44.16
2023-10-26T05:00:36.875Z,44.03
2023-10-26T05:03:05.379Z,44.27
2023-10-26T05:05:35.460Z,44.26
2023-10-26T05:08:04.527Z,43.99
2023-10-26T05:10:32.471Z,44.15
2023-10-26T05:13:00.419Z,44.12
2023-10-26T05:15:28.864Z,44.04
2023-10-26T05:17:57.049Z,44.11
2023-10-26T05:20:25.263Z,44.19
2023-10-26T05:22:55.366Z,44.02
2023-10-26T05:25:24.638Z,44.05
2023-10-26T05:27:54.344Z,44.04
2023-10-26T05:30:22.592Z,43.81
2023-10-26T05:32:50.624Z,44.02
2023-10-26T05:35:20.269Z,44.12
2023-10-26T05:37:48.403Z,44.04
2023-10-26T05:40:17.796Z,43.68
2023-10-26T05:42:45.717Z,43.79
2023-10-26T05:45:14.384Z,43.80
2023-10-26T05:47:42.686Z,44.06
2023-10-26T05:50:11.948Z,44.09
2023-10-26T05:52:39.964Z,43.92
2023-10-26T05:55:08.913Z,44.10
2023-10-26T05:57:38.362Z,43.98
2023-10-26T06:00:10.993Z,44.02
2023-10-26T06:02:39.181Z,43.94
2023-10-26T06:05:07.855Z,44.03
2023-10-26T06:07:35.885Z,43.66
2023-10-26T06:10:04.199Z,44.04
2023-10-26T06:12:32.434Z,43.75
2023-10-26T06:15:02.301Z,44.08
2023-10-26T06:17:30.259Z,43.76
2023-10-26T06:19:58.228Z,43.57
2023-10-26T06:22:26.282Z,43.45
2023-10-26T06:24:54.487Z,43.73
2023-10-26T06:27:22.472Z,44.08
2023-10-26T06:29:53.569Z,43.77
2023-10-26T06:32:22.984Z,44.06
2023-10-26T06:34:51.944Z,43.77
2023-10-26T06:37:19.960Z,43.97
2023-10-26T06:39:47.882Z,43.83
2023-10-26T06:42:15.960Z,43.81
2023-10-26T06:44:44.515Z,43.72
2023-10-26T06:47:12.650Z,43.69
2023-10-26T06:49:45.209Z,43.75
2023-10-26T06:52:13.277Z,43.51
2023-10-26T06:54:41.589Z,43.72
2023-10-26T06:57:09.669Z,43.63
2023-10-26T06:59:37.670Z,43.81
2023-10-26T07:02:09.270Z,43.50
2023-10-26T07:04:41.734Z,43.75
2023-10-26T07:07:10.105Z,43.67
2023-10-26T07:09:38.512Z,43.33
2023-10-26T07:12:07.396Z,43.56
2023-10-26T07:14:35.829Z,43.65
2023-10-26T07:17:04.054Z,43.95
2023-10-26T07:19:32.032Z,43.54
2023-10-26T07:22:01.328Z,43.40
2023-10-26T07:24:30.575Z,43.66
2023-10-26T07:26:59.443Z,43.46
2023-10-26T07:29:27.461Z,43.52
2023-10-26T07:31:56.040Z,43.51
2023-10-26T07:34:24.165Z,43.67
2023-10-26T07:36:52.419Z,43.44
2023-10-26T07:39:47.447Z,43.51
2023-10-26T07:42:11.325Z,43.25
2023-10-26T07:44:39.770Z,43.63
2023-10-26T07:47:10.049Z,43.57
2023-10-26T07:49:38.434Z,43.58
2023-10-26T07:52:06.621Z,43.52
2023-10-26T07:54:36.044Z,43.23
2023-10-26T07:57:04.383Z,43.65
2023-10-26T07:59:32.433Z,43.37
2023-10-26T08:02:00.981Z,43.11
2023-10-26T08:04:33.642Z,43.64
2023-10-26T08:07:02.403Z,43.51
2023-10-26T08:09:34.232Z,43.60
2023-10-26T08:12:04.222Z,43.37
2023-10-26T08:16:09.084Z,43.49
2023-10-26T08:17:20.434Z,43.27
2023-10-26T08:19:48.745Z,43.49
2023-10-26T08:22:16.998Z,43.21
2023-10-26T08:24:45.467Z,43.56
2023-10-26T08:27:14.934Z,43.54
2023-10-26T08:29:43.000Z,43.44
2023-10-26T08:32:11.045Z,43.29
2023-10-26T08:34:39.988Z,43.64
2023-10-26T08:37:13.680Z,43.39
2023-10-26T08:39:42.456Z,43.19
2023-10-26T08:42:11.145Z,43.37
2023-10-26T08:44:43.607Z,43.26
2023-10-26T08:47:15.758Z,43.03
2023-10-26T08:49:46.109Z,43.42
2023-10-26T08:52:18.726Z,43.30
2023-10-26T08:54:48.376Z,43.68
2023-10-26T08:57:16.412Z,42.98
2023-10-26T08:59:45.977Z,43.26
2023-10-26T09:02:14.026Z,42.97
2023-10-26T09:05:02.590Z,43.34
2023-10-26T09:07:30.653Z,43.25
2023-10-26T09:09:58.830Z,43.16
2023-10-26T09:12:27.258Z,43.39
2023-10-26T09:15:03.368Z,43.32
2023-10-26T09:17:31.788Z,43.06
2023-10-26T09:20:00.169Z,43.15
2023-10-26T09:22:38.564Z,43.06
2023-10-26T09:25:10.143Z,42.95
2023-10-26T09:27:38.088Z,43.32
2023-10-26T09:30:11.616Z,43.13
2023-10-26T09:32:40.184Z,43.37
2023-10-26T09:35:09.367Z,43.31
2023-10-26T09:37:51.810Z,43.31
2023-10-26T09:40:20.369Z,43.37
2023-10-26T09:42:49.021Z,43.01
2023-10-26T09:45:18.878Z,43.09
2023-10-26T09:47:47.134Z,43.39
2023-10-26T09:50:15.450Z,43.17
2023-10-26T09:52:44.180Z,43.23
2023-10-26T09:55:12.997Z,43.03
2023-10-26T09:57:44.967Z,43.18
2023-10-26T10:00:14.640Z,43.51
2023-10-26T10:02:44.077Z,43.26
2023-10-26T10:05:39.555Z,43.14
2023-10-26T10:08:07.800Z,43.29
2023-10-26T10:10:36.588Z,43.10
2023-10-26T10:13:04.566Z,43.22
2023-10-26T10:15:42.370Z,43.27
2023-10-26T10:18:12.135Z,43.20
2023-10-26T10:20:41.702Z,43.11
2023-10-26T10:23:10.194Z,43.21
2023-10-26T10:26:16.156Z,42.99
2023-10-26T10:28:53.091Z,43.17
2023-10-26T10:31:25.640Z,43.17
2023-10-26T10:34:07.176Z,43.14
2023-10-26T10:37:15.801Z,43.06
2023-10-26T10:40:13.931Z,42.87
2023-10-26T10:42:42.867Z,43.09
2023-10-26T10:45:14.370Z,43.26
2023-10-26T10:47:42.838Z,42.93
2023-10-26T10:50:19.149Z,43.12
2023-10-26T10:52:47.195Z,43.16
2023-10-26T10:55:20.420Z,42.87
2023-10-26T10:57:56.320Z,43.02
2023-10-26T11:00:24.763Z,43.07
2023-10-26T11:02:57.871Z,43.09
2023-10-26T11:05:38.651Z,42.98
2023-10-26T11:08:07.019Z,43.10
2023-10-26T11:10:34.969Z,43.25
2023-10-26T11:13:02.936Z,43.20
2023-10-26T11:15:34.742Z,43.01
2023-10-26T11:18:03.210Z,42.86
2023-10-26T11:20:42.480Z,43.19
2023-10-26T11:23:11.169Z,42.90
2023-10-26T11:25:39.552Z,43.07
2023-10-26T11:28:07.851Z,42.89
2023-10-26T11:30:47.363Z,43.07
2023-10-26T11:33:31.124Z,43.06
2023-10-26T11:36:00.466Z,42.95
2023-10-26T11:38:28.709Z,43.08
2023-10-26T11:40:57.104Z,43.18
2023-10-26T11:43:34.395Z,43.01
2023-10-26T11:46:04.495Z,43.02
2023-10-26T11:48:34.373Z,43.04
2023-10-26T11:51:07.748Z,43.00
2023-10-26T11:53:36.654Z,43.01
2023-10-26T11:56:05.637Z,42.85
2023-10-26T11:58:34.569Z,42.98
2023-10-26T12:01:02.595Z,43.03
2023-10-26T12:03:30.669Z,43.02
2023-10-26T12:05:59.261Z,42.91
2023-10-26T12:08:28.694Z,42.94
2023-10-26T12:10:56.668Z,42.90
2023-10-26T12:13:24.661Z,43.24
2023-10-26T12:15:53.209Z,42.93
2023-10-26T12:18:21.404Z,43.06
2023-10-26T12:20:49.388Z,42.94
2023-10-26T12:23:17.348Z,43.00
2023-10-26T12:25:47.926Z,43.01
2023-10-26T12:28:20.907Z,42.78
2023-10-26T12:30:52.280Z,42.86
2023-10-26T12:33:20.528Z,43.00
2023-10-26T12:35:48.763Z,42.95
2023-10-26T12:38:16.724Z,42.89
2023-10-26T12:40:46.049Z,42.94
2023-10-26T12:43:14.258Z,42.82
2023-10-26T12:45:42.433Z,42.90
2023-10-26T12:48:10.433Z,42.98
2023-10-26T12:50:38.687Z,42.88
2023-10-26T12:53:06.923Z,42.88
2023-10-26T12:55:35.696Z,42.83
2023-10-26T12:58:05.393Z,42.89
2023-10-26T13:00:33.505Z,42.96
2023-10-26T13:03:01.695Z,43.02
2023-10-26T13:05:29.973Z,42.86
2023-10-26T13:07:58.323Z,43.02
2023-10-26T13:10:26.678Z,42.76
2023-10-26T13:12:54.647Z,42.77
2023-10-26T13:15:24.419Z,42.54
2023-10-26T13:17:52.472Z,42.79
2023-10-26T13:20:20.644Z,42.73
2023-10-26T13:22:49.194Z,42.72
2023-10-26T13:25:17.330Z,43.14
2023-10-26T13:27:45.352Z,42.67
2023-10-26T13:30:15.660Z,42.88
2023-10-26T13:32:45.514Z,42.36
2023-10-26T13:35:13.595Z,42.31
2023-10-26T13:37:41.691Z,42.57
2023-10-26T13:40:10.933Z,42.66
2023-10-26T13:42:38.980Z,42.87
2023-10-26T13:45:10.271Z,42.71
2023-10-26T13:47:38.529Z,42.72
2023-10-26T13:50:09.078Z,42.60
2023-10-26T13:52:37.108Z,42.49
2023-10-26T13:55:06.623Z,42.76
2023-10-26T13:57:34.702Z,42.50
2023-10-26T14:00:09.477Z,42.73
2023-10-26T14:02:37.701Z,42.55
2023-10-26T14:05:29.549Z,42.78
2023-10-26T14:07:58.363Z,42.71
2023-10-26T14:10:26.602Z,42.66
2023-10-26T14:12:54.686Z,42.78
2023-10-26T14:15:23.087Z,42.60
2023-10-26T14:17:51.225Z,42.71
2023-10-26T14:20:20.694Z,42.60
2023-10-26T14:22:49.191Z,42.45
2023-10-26T14:25:17.683Z,42.44
2023-10-26T14:27:45.611Z,42.92
2023-10-26T14:30:14.195Z,42.72
2023-10-26T14:32:42.278Z,42.67
2023-10-26T14:35:10.896Z,42.55
2023-10-26T14:37:40.558Z,42.65
2023-10-26T14:40:09.859Z,42.57
2023-10-26T14:42:38.337Z,42.63
2023-10-26T14:45:10.138Z,42.49
2023-10-26T14:47:38.233Z,42.62
2023-10-26T14:50:07.190Z,42.71
2023-10-26T14:52:35.208Z,42.48
2023-10-26T14:55:05.164Z,42.55
2023-10-26T14:57:33.370Z,42.62
2023-10-26T15:00:01.613Z,42.57
2023-10-26T15:02:29.840Z,42.62
2023-10-26T15:04:57.848Z,42.57
2023-10-26T15:07:26.676Z,42.51
2023-10-26T15:10:23.267Z,42.73
2023-10-26T15:12:44.104Z,42.51
2023-10-26T15:15:12.486Z,42.66
2023-10-26T15:17:40.562Z,42.71
2023-10-26T15:20:10.662Z,42.63
2023-10-26T15:22:38.659Z,42.71
2023-10-26T15:25:07.381Z,42.48
2023-10-26T15:27:35.500Z,42.62
2023-10-26T15:30:05.637Z,42.90
2023-10-26T15:32:33.574Z,42.59
2023-10-26T15:35:02.006Z,42.75
2023-10-26T15:37:30.282Z,42.59
2023-10-26T15:39:59.224Z,42.84
2023-10-26T15:42:27.282Z,42.67
2023-10-26T15:44:55.939Z,42.63
2023-10-26T15:47:25.830Z,42.48
2023-10-26T15:49:53.891Z,42.53
2023-10-26T15:52:22.106Z,42.54
2023-10-26T15:54:50.690Z,42.72
2023-10-26T15:57:20.228Z,42.59
2023-10-26T15:59:48.282Z,42.51
2023-10-26T16:02:16.333Z,42.54
2023-10-26T16:04:46.145Z,42.88
2023-10-26T16:07:14.400Z,42.36
2023-10-26T16:09:42.626Z,42.51
2023-10-26T16:12:10.961Z,42.52
2023-10-26T16:14:39.151Z,42.64
2023-10-26T16:17:07.151Z,42.67
2023-10-26T16:19:35.135Z,42.68
2023-10-26T16:22:04.889Z,42.27
2023-10-26T16:24:32.881Z,42.55
2023-10-26T16:27:01.242Z,42.51
2023-10-26T16:29:29.478Z,42.46
2023-10-26T16:31:57.706Z,42.57
2023-10-26T16:34:25.661Z,42.64
2023-10-26T16:36:53.720Z,42.50
2023-10-26T16:39:23.138Z,42.38
2023-10-26T16:41:51.272Z,42.66
2023-10-26T16:44:19.235Z,42.72
2023-10-26T16:46:47.943Z,42.73
2023-10-26T16:49:16.248Z,42.89
2023-10-26T16:51:44.226Z,42.42
2023-10-26T16:54:12.369Z,42.54
2023-10-26T16:56:41.728Z,42.62
2023-10-26T16:59:09.677Z,42.75
2023-10-26T17:01:37.732Z,42.24
2023-10-26T17:04:06.205Z,42.43
2023-10-26T17:06:34.864Z,42.51
2023-10-26T17:09:02.821Z,42.60
2023-10-26T17:11:30.824Z,42.45
2023-10-26T17:14:00.672Z,42.48
2023-10-26T17:16:28.952Z,42.54
2023-10-26T17:18:57.669Z,42.58
2023-10-26T17:21:26.354Z,42.39
2023-10-26T17:23:54.549Z,42.42
2023-10-26T17:26:22.504Z,42.45
2023-10-26T17:28:50.443Z,42.50
2023-10-26T17:31:19.926Z,42.43
2023-10-26T17:33:48.040Z,42.49
2023-10-26T17:36:16.110Z,42.58
2023-10-26T17:38:44.032Z,42.58
2023-10-26T17:41:13.184Z,42.72
2023-10-26T17:43:41.354Z,42.67
2023-10-26T17:46:09.708Z,42.29
2023-10-26T17:48:39.242Z,42.55
2023-10-26T17:51:09.152Z,42.40
2023-10-26T17:53:39.125Z,42.52
2023-10-26T17:56:13.250Z,42.51
2023-10-26T17:58:41.699Z,42.51
2023-10-26T18:01:11.334Z,42.19
2023-10-26T18:03:41.190Z,42.48
2023-10-26T18:06:09.495Z,42.55
2023-10-26T18:08:38.257Z,42.60
2023-10-26T18:11:06.411Z,42.33
2023-10-26T18:13:34.975Z,42.57
2023-10-26T18:16:06.191Z,42.34
2023-10-26T18:18:34.373Z,42.57
2023-10-26T18:21:04.233Z,42.69
2023-10-26T18:23:32.613Z,42.49
2023-10-26T18:26:04.240Z,42.38
2023-10-26T18:28:32.218Z,42.46
2023-10-26T18:31:04.128Z,42.38
2023-10-26T18:33:32.327Z,42.62
2023-10-26T18:36:03.537Z,42.32
2023-10-26T18:38:31.898Z,42.59
2023-10-26T18:40:59.968Z,42.40
2023-10-26T18:43:28.575Z,42.15
2023-10-26T18:46:01.107Z,42.49
2023-10-26T18:48:30.806Z,42.75
2023-10-26T18:50:58.866Z,42.54
2023-10-26T18:53:28.229Z,42.40
2023-10-26T18:55:56.404Z,42.48
2023-10-26T18:58:25.601Z,42.43
2023-10-26T19:00:53.833Z,42.45
2023-10-26T19:03:23.750Z,42.75
2023-10-26T19:05:52.594Z,42.67
2023-10-26T19:08:20.856Z,42.49
2023-10-26T19:10:50.609Z,42.48
2023-10-26T19:13:19.006Z,42.44
2023-10-26T19:15:47.569Z,42.28
2023-10-26T19:18:15.772Z,42.37
2023-10-26T19:20:43.961Z,42.50
2023-10-26T19:23:12.423Z,42.63
2023-10-26T19:25:40.665Z,42.50
2023-10-26T19:28:10.501Z,42.61
2023-10-26T19:30:38.843Z,42.50
2023-10-26T19:33:07.178Z,42.42
2023-10-26T19:35:35.522Z,42.63
2023-10-26T19:38:03.524Z,42.46
2023-10-26T19:40:31.662Z,42.54
2023-10-26T19:42:59.642Z,42.52
2023-10-26T19:45:29.572Z,42.55
2023-10-26T19:47:59.725Z,42.67
2023-10-26T19:50:31.419Z,42.63
2023-10-26T19:53:02.316Z,42.47
2023-10-26T19:55:34.176Z,42.71
2023-10-26T19:58:05.398Z,42.58
2023-10-26T20:00:37.048Z,42.52
2023-10-26T20:03:08.443Z,42.46
2023-10-26T20:05:39.596Z,42.69
2023-10-26T20:08:10.047Z,42.80
2023-10-26T20:10:45.467Z,42.42
2023-10-26T20:13:19.416Z,42.46
2023-10-26T20:15:51.008Z,42.51
2023-10-26T20:18:21.340Z,42.44
2023-10-26T20:20:51.188Z,42.62
2023-10-26T20:23:21.330Z,42.59
2023-10-26T20:25:51.859Z,42.44
2023-10-26T20:28:21.525Z,42.47
2023-10-26T20:30:52.779Z,42.63
2023-10-26T20:33:22.927Z,42.53
2023-10-26T20:35:53.478Z,42.68
2023-10-26T20:38:23.346Z,42.40
2023-10-26T20:40:52.414Z,42.25
2023-10-26T20:43:21.440Z,42.49
2023-10-26T20:45:58.881Z,42.28
2023-10-26T20:48:27.086Z,42.62
2023-10-26T20:50:57.973Z,42.76
2023-10-26T20:53:28.036Z,42.44
2023-10-26T20:55:59.239Z,42.49
2023-10-26T20:58:27.242Z,42.62
2023-10-26T21:00:55.704Z,42.24
2023-10-26T21:03:25.441Z,42.63
2023-10-26T21:05:53.475Z,42.52
2023-10-26T21:08:22.177Z,42.52
2023-10-26T21:10:50.188Z,42.40
2023-10-26T21:13:18.627Z,42.27
2023-10-26T21:15:47.705Z,42.77
2023-10-26T21:18:16.055Z,42.59
2023-10-26T21:20:45.763Z,42.41
2023-10-26T21:23:13.823Z,42.54
2023-10-26T21:25:42.058Z,42.48
2023-10-26T21:28:10.185Z,42.35
2023-10-26T21:30:38.228Z,42.42
2023-10-26T21:33:06.290Z,42.47
2023-10-26T21:35:37.195Z,42.79
2023-10-26T21:38:07.796Z,42.47
2023-10-26T21:40:37.307Z,42.60
2023-10-26T21:43:05.566Z,42.20
2023-10-26T21:45:36.972Z,42.36
2023-10-26T21:48:05.313Z,42.59
2023-10-26T21:50:34.132Z,42.42
2023-10-26T21:53:02.156Z,42.28
2023-10-26T21:55:32.793Z,42.64
2023-10-26T21:58:00.860Z,42.69
2023-10-26T22:00:29.579Z,42.31
2023-10-26T22:02:57.770Z,42.39
2023-10-26T22:05:27.139Z,42.56
2023-10-26T22:07:55.307Z,42.66
2023-10-26T22:10:23.373Z,42.28
2023-10-26T22:12:53.242Z,42.59
2023-10-26T22:15:21.988Z,42.66
2023-10-26T22:17:50.698Z,42.22
2023-10-26T22:20:18.793Z,42.28
2023-10-26T22:22:46.841Z,42.47
2023-10-26T22:25:15.121Z,42.47
2023-10-26T22:27:43.436Z,42.38
2023-10-26T22:30:14.289Z,42.20
2023-10-26T22:32:43.993Z,42.35
2023-10-26T22:35:12.873Z,42.60
2023-10-26T22:37:40.926Z,42.39
2023-10-26T22:40:10.409Z,42.36
2023-10-26T22:42:38.977Z,41.88
2023-10-26T22:45:11.029Z,42.38
2023-10-26T22:47:40.405Z,42.35
2023-10-26T22:50:09.573Z,42.11
2023-10-26T22:52:37.852Z,42.27
2023-10-26T22:55:07.749Z,42.24
2023-10-26T22:57:35.741Z,42.59
2023-10-26T23:00:04.118Z,42.67
2023-10-26T23:02:32.134Z,42.43
2023-10-26T23:05:02.658Z,42.21
2023-10-26T23:07:30.836Z,42.40
2023-10-26T23:10:01.351Z,42.46
2023-10-26T23:12:29.330Z,42.28
2023-10-26T23:14:57.573Z,42.45
2023-10-26T23:17:25.613Z,42.48
2023-10-26T23:19:53.613Z,42.00
2023-10-26T23:22:23.062Z,42.30
2023-10-26T23:24:51.591Z,42.33
2023-10-26T23:27:19.589Z,42.24
2023-10-26T23:29:47.641Z,42.42
2023-10-26T23:32:15.580Z,42.34
2023-10-26T23:34:44.318Z,42.31
2023-10-26T23:37:12.442Z,42.30
2023-10-26T23:39:41.795Z,42.24
2023-10-26T23:42:10.094Z,42.27
2023-10-26T23:44:38.470Z,42.43
2023-10-26T23:47:07.083Z,42.41
2023-10-26T23:49:35.169Z,42.43
2023-10-26T23:52:03.346Z,42.27
2023-10-26T23:54:31.484Z,42.43
2023-10-26T23:57:01.140Z,42.39
2023-10-26T23:59:30.867Z,42.58
